Ripley, WV

7:02 PM EST on December 20, 2014 (GMT -0500)
Tug Fork Rd. | Change Station
CLOSE
Current Station
Personal Weather Station
Location: Ripley, WV
Elevation: 646 ft
Nearby Weather Stations

Elev 646 ft 38.78 °N, 81.67 °W | Updated 2 minutes ago

Overcast
Overcast
34.1 °F
Feels Like 34 °F
N
0.0
Wind Variable Wind from WNW
Gusts 0.0 mph

Today
High -- | Low -- °F
--% Chance of Precip.
Yesterday
High -- | Low -- °F
Precip. -- in
7:40 AM 5:08 PM
Waning Crescent, 1% visible
Pressure 30.30 in
Visibility 10.0 miles
Clouds Overcast 2200 ft
Windchill 34 °F
Dew Point 28 °F
Humidity 79%
Rainfall 0.00 in
Snow Depth Not available.
UV 0 out of 12
Pollen .10 out of 12
Air Quality Not available.
Flu Activity Not available.
METAR K3I2 202355Z AUTO 00000KT 10SM OVC022 01/M02 A3030 RMK AO2

More Conditions Fewer Conditions

Pressure 30.30 in
Visibility 10.0 miles
Clouds Overcast 2200 ft
Windchill 34 °F
Dew Point 28 °F
Humidity 79%
Rainfall 0.00 in
Snow Depth Not available.
UV 0 out of 12
Pollen .10 out of 12
Air Quality Not available.
Flu Activity Not available.
METAR K3I2 202355Z AUTO 00000KT 10SM OVC022 01/M02 A3030 RMK AO2

More Conditions Fewer Conditions

10-Day Weather Forecast

Almanac

Astronomy

Dec. 20, 2014 Rise Set
Actual Time
Civil Twilight
Nautical Twilight
Astronomical Twilight
Moon
Length of Visible Light
Length of Day
Tomorrow will be .
, % of the Moon is Illuminated

Today's Extremes

State Highs State Lows

Community

WunderPhotos

Upload Photos

1,779,320 photos uploaded!

WunderBlogs® & News

Nearby

Air Quality

  Air Quality AQ Index Pollutant
Not available.

Snow Depth

Station Depth Elevation

Earthquake Activity

City Distance Mag. Time & Date
Minimum magnitude displayed is 2.5.

Coastal Water Temperatures

Place Temperature

Nearby Weather Stations